createdAt,value
2019-02-14T00:00:29.013Z,-0.40
2019-02-14T00:02:55.912Z,-0.40
2019-02-14T00:05:22.858Z,-0.40
2019-02-14T00:07:49.667Z,-0.40
2019-02-14T00:10:16.451Z,-0.40
2019-02-14T00:12:43.245Z,-0.50
2019-02-14T00:15:10.163Z,-0.50
2019-02-14T00:17:36.943Z,-0.50
2019-02-14T00:20:04.330Z,-0.50
2019-02-14T00:22:31.133Z,-0.40
2019-02-14T00:24:58.030Z,-0.30
2019-02-14T00:27:25.066Z,-0.30
2019-02-14T00:29:52.073Z,-0.30
2019-02-14T00:32:19.093Z,-0.30
2019-02-14T00:34:45.881Z,-0.30
2019-02-14T00:37:13.002Z,-0.40
2019-02-14T00:39:39.992Z,-0.30
2019-02-14T00:42:06.906Z,-0.30
2019-02-14T00:44:33.701Z,-0.30
2019-02-14T00:47:01.321Z,-0.30
2019-02-14T00:49:28.894Z,-0.30
2019-02-14T00:51:55.709Z,-0.20
2019-02-14T00:54:22.605Z,-0.20
2019-02-14T00:56:49.700Z,-0.20
2019-02-14T00:59:16.582Z,-0.20
2019-02-14T01:01:43.483Z,-0.20
2019-02-14T01:04:10.273Z,-0.20
2019-02-14T01:06:37.279Z,-0.20
2019-02-14T01:09:05.154Z,-0.20
2019-02-14T01:11:32.261Z,-0.30
2019-02-14T01:13:59.144Z,-0.30
2019-02-14T01:16:26.137Z,-0.30
2019-02-14T01:18:53.125Z,-0.30
2019-02-14T01:21:19.941Z,-0.30
2019-02-14T01:23:46.713Z,-0.30
2019-02-14T01:26:13.702Z,-0.30
2019-02-14T01:28:40.537Z,-0.30
2019-02-14T01:31:07.441Z,-0.30
2019-02-14T01:33:34.343Z,-0.30
2019-02-14T01:36:01.231Z,-0.30
2019-02-14T01:38:28.145Z,-0.30
2019-02-14T01:40:55.033Z,-0.30
2019-02-14T01:43:21.937Z,-0.30
2019-02-14T01:45:48.818Z,-0.30
2019-02-14T01:48:15.713Z,-0.40
2019-02-14T01:50:42.693Z,-0.40
2019-02-14T01:53:09.623Z,-0.40
2019-02-14T01:55:36.688Z,-0.40
2019-02-14T01:58:03.996Z,-0.40
2019-02-14T02:00:30.894Z,-0.50
2019-02-14T02:02:57.704Z,-0.50
2019-02-14T02:05:24.570Z,-0.50
2019-02-14T02:07:51.457Z,-0.40
2019-02-14T02:10:18.429Z,-0.50
2019-02-14T02:12:45.314Z,-0.40
2019-02-14T02:15:12.795Z,-0.50
2019-02-14T02:17:39.681Z,-0.50
2019-02-14T02:20:07.208Z,-0.50
2019-02-14T02:22:34.009Z,-0.60
2019-02-14T02:25:00.893Z,-0.70
2019-02-14T02:27:28.312Z,-0.70
2019-02-14T02:29:55.118Z,-0.80
2019-02-14T02:32:21.991Z,-0.80
2019-02-14T02:34:48.764Z,-0.90
2019-02-14T02:37:15.546Z,-0.90
2019-02-14T02:39:42.437Z,-1.00
2019-02-14T02:42:09.204Z,-1.00
2019-02-14T02:44:35.975Z,-1.00
2019-02-14T02:47:02.860Z,-1.10
2019-02-14T02:49:29.825Z,-1.10
2019-02-14T02:51:56.740Z,-1.00
2019-02-14T02:54:23.611Z,-1.10
2019-02-14T02:56:50.378Z,-1.00
2019-02-14T02:59:17.167Z,-1.10
2019-02-14T03:01:43.934Z,-1.10
2019-02-14T03:04:10.842Z,-1.10
2019-02-14T03:06:37.721Z,-1.10
2019-02-14T03:09:05.317Z,-1.10
2019-02-14T03:11:32.074Z,-1.00
2019-02-14T03:13:58.842Z,-1.10
2019-02-14T03:16:25.596Z,-1.10
2019-02-14T03:18:52.386Z,-1.20
2019-02-14T03:21:19.157Z,-1.20
2019-02-14T03:23:45.932Z,-1.30
2019-02-14T03:26:12.699Z,-1.30
2019-02-14T03:28:39.473Z,-1.30
2019-02-14T03:31:06.260Z,-1.40
2019-02-14T03:33:33.209Z,-1.40
2019-02-14T03:36:00.108Z,-1.50
2019-02-14T03:38:26.983Z,-1.40
2019-02-14T03:40:53.844Z,-1.40
2019-02-14T03:43:20.626Z,-1.40
2019-02-14T03:45:47.411Z,-1.40
2019-02-14T03:48:14.172Z,-1.40
2019-02-14T03:50:40.953Z,-1.40
2019-02-14T03:53:07.725Z,-1.40
2019-02-14T03:55:34.501Z,-1.40
2019-02-14T03:58:01.365Z,-1.40
2019-02-14T04:00:28.255Z,-1.50
2019-02-14T04:02:55.017Z,-1.50
2019-02-14T04:05:21.815Z,-1.50
2019-02-14T04:07:48.576Z,-1.50
2019-02-14T04:10:15.602Z,-1.50
2019-02-14T04:12:42.382Z,-1.40
2019-02-14T04:15:12.303Z,-1.40
2019-02-14T04:17:39.268Z,-1.40
2019-02-14T04:20:06.473Z,-1.40
2019-02-14T04:22:33.228Z,-1.40
2019-02-14T04:25:00.011Z,-1.40
2019-02-14T04:27:26.788Z,-1.50
2019-02-14T04:29:53.677Z,-1.50
2019-02-14T04:32:20.468Z,-1.50
2019-02-14T04:34:47.350Z,-1.50
2019-02-14T04:37:14.144Z,-1.50
2019-02-14T04:39:40.926Z,-1.50
2019-02-14T04:42:07.822Z,-1.50
2019-02-14T04:44:34.605Z,-1.40
2019-02-14T04:47:01.402Z,-1.50
2019-02-14T04:49:28.278Z,-1.50
2019-02-14T04:51:55.073Z,-1.60
2019-02-14T04:54:21.841Z,-1.60
2019-02-14T04:56:48.669Z,-1.60
2019-02-14T04:59:15.460Z,-1.60
2019-02-14T05:01:42.363Z,-1.70
2019-02-14T05:04:09.152Z,-1.70
2019-02-14T05:06:44.093Z,-1.80
2019-02-14T05:09:08.693Z,-1.80
2019-02-14T05:11:35.688Z,-1.80
2019-02-14T05:14:02.483Z,-1.80
2019-02-14T05:16:29.377Z,-1.80
2019-02-14T05:18:56.152Z,-1.80
2019-02-14T05:21:22.981Z,-1.80
2019-02-14T05:23:49.759Z,-1.90
2019-02-14T05:26:16.543Z,-2.00
2019-02-14T05:28:47.242Z,-2.10
2019-02-14T05:31:14.149Z,-2.10
2019-02-14T05:33:40.936Z,-2.00
2019-02-14T05:36:07.741Z,-2.10
2019-02-14T05:38:34.545Z,-2.00
2019-02-14T05:41:01.449Z,-2.00
2019-02-14T05:43:28.246Z,-2.00
2019-02-14T05:45:55.118Z,-2.00
2019-02-14T05:48:21.917Z,-2.00
2019-02-14T05:50:48.704Z,-1.90
2019-02-14T05:53:15.493Z,-1.90
2019-02-14T05:55:42.468Z,-1.90
2019-02-14T05:58:09.269Z,-1.80
2019-02-14T06:00:36.145Z,-1.80
2019-02-14T06:03:03.047Z,-1.70
2019-02-14T06:05:29.817Z,-1.70
2019-02-14T06:07:56.722Z,-1.70
2019-02-14T06:10:23.689Z,-1.60
2019-02-14T06:12:50.490Z,-1.60
2019-02-14T06:15:17.377Z,-1.60
2019-02-14T06:17:44.151Z,-1.60
2019-02-14T06:20:11.360Z,-1.60
2019-02-14T06:22:38.385Z,-1.60
2019-02-14T06:25:05.313Z,-1.60
2019-02-14T06:27:32.208Z,-1.50
2019-02-14T06:29:59.148Z,-1.50
2019-02-14T06:32:26.116Z,-1.40
2019-02-14T06:34:52.897Z,-1.40
2019-02-14T06:37:19.802Z,-1.40
2019-02-14T06:39:46.595Z,-1.40
2019-02-14T06:42:13.384Z,-1.40
2019-02-14T06:44:40.161Z,-1.40
2019-02-14T06:47:07.049Z,-1.40
2019-02-14T06:49:33.925Z,-1.40
2019-02-14T06:52:00.703Z,-1.50
2019-02-14T06:54:27.512Z,-1.50
2019-02-14T06:56:54.377Z,-1.60
2019-02-14T06:59:21.212Z,-1.60
2019-02-14T07:01:48.185Z,-1.70
2019-02-14T07:04:15.045Z,-1.60
2019-02-14T07:06:41.831Z,-1.70
2019-02-14T07:09:08.609Z,-1.60
2019-02-14T07:11:35.368Z,-1.60
2019-02-14T07:14:02.262Z,-1.50
2019-02-14T07:16:29.025Z,-1.40
2019-02-14T07:18:55.813Z,-1.30
2019-02-14T07:21:22.688Z,-1.20
2019-02-14T07:23:49.461Z,-1.10
2019-02-14T07:26:16.368Z,-0.90
2019-02-14T07:28:43.281Z,-0.70
2019-02-14T07:31:10.179Z,-0.40
2019-02-14T07:33:37.069Z,0.00
2019-02-14T07:36:04.055Z,0.60
2019-02-14T07:38:30.957Z,1.00
2019-02-14T07:40:57.932Z,1.10
2019-02-14T07:43:24.718Z,1.10
2019-02-14T07:45:51.801Z,1.20
2019-02-14T07:48:18.610Z,1.50
2019-02-14T07:50:45.413Z,2.20
2019-02-14T07:53:12.220Z,2.90
2019-02-14T07:55:39.021Z,3.70
2019-02-14T07:58:05.953Z,3.90
2019-02-14T08:00:32.978Z,3.90
2019-02-14T08:02:59.858Z,3.40
2019-02-14T08:05:26.868Z,3.10
2019-02-14T08:07:53.853Z,3.20
2019-02-14T08:10:20.656Z,3.70
2019-02-14T08:12:47.545Z,3.80
2019-02-14T08:15:14.332Z,4.00
2019-02-14T08:17:43.624Z,4.00
2019-02-14T08:20:10.943Z,4.20
2019-02-14T08:22:37.748Z,4.50
2019-02-14T08:25:06.157Z,4.40
2019-02-14T08:27:32.981Z,4.60
2019-02-14T08:29:59.765Z,5.30
2019-02-14T08:32:26.547Z,6.10
2019-02-14T08:34:56.168Z,7.20
2019-02-14T08:37:23.056Z,7.80
2019-02-14T08:39:49.944Z,8.20
2019-02-14T08:42:16.737Z,8.00
2019-02-14T08:44:43.564Z,7.70
2019-02-14T08:47:10.356Z,7.60
2019-02-14T08:49:37.147Z,7.50
2019-02-14T08:52:04.018Z,8.00
2019-02-14T08:54:30.816Z,8.80
2019-02-14T08:56:57.600Z,9.50
2019-02-14T08:59:24.381Z,9.70
2019-02-14T09:01:51.169Z,9.80
2019-02-14T09:04:17.957Z,10.20
2019-02-14T09:06:44.858Z,10.80
2019-02-14T09:09:11.644Z,12.00
2019-02-14T09:11:38.432Z,12.80
2019-02-14T09:14:05.252Z,13.50
2019-02-14T09:16:32.168Z,13.50
2019-02-14T09:18:59.203Z,13.60
2019-02-14T09:21:26.036Z,13.80
2019-02-14T09:23:52.827Z,14.20
2019-02-14T09:26:19.710Z,14.40
2019-02-14T09:28:46.637Z,14.40
2019-02-14T09:31:13.433Z,14.30
2019-02-14T09:33:40.330Z,14.70
2019-02-14T09:36:07.091Z,15.00
2019-02-14T09:38:34.033Z,15.20
2019-02-14T09:41:01.038Z,15.40
2019-02-14T09:43:29.830Z,15.80
2019-02-14T09:45:56.817Z,15.80
2019-02-14T09:48:23.732Z,15.80
2019-02-14T09:50:50.819Z,16.20
2019-02-14T09:53:17.721Z,16.80
2019-02-14T09:55:44.578Z,17.90
2019-02-14T09:58:11.613Z,18.30
2019-02-14T10:00:38.681Z,18.70
2019-02-14T10:03:05.625Z,19.10
2019-02-14T10:05:32.605Z,19.70
2019-02-14T10:07:59.576Z,19.50
2019-02-14T10:10:26.448Z,20.10
2019-02-14T10:12:53.429Z,21.20
2019-02-14T10:15:20.315Z,21.80
2019-02-14T10:17:47.116Z,22.00
2019-02-14T10:20:14.513Z,22.80
2019-02-14T10:22:41.623Z,23.00
2019-02-14T10:25:08.817Z,23.30
2019-02-14T10:27:35.749Z,23.40
2019-02-14T10:30:03.936Z,23.20
2019-02-14T10:32:30.906Z,22.90
2019-02-14T10:34:57.840Z,23.20
2019-02-14T10:37:24.844Z,23.40
2019-02-14T10:39:51.679Z,23.60
2019-02-14T10:42:18.598Z,24.00
2019-02-14T10:44:45.411Z,24.30
2019-02-14T10:47:12.193Z,25.00
2019-02-14T10:49:38.998Z,25.20
2019-02-14T10:52:05.901Z,24.40
2019-02-14T10:54:32.828Z,23.50
2019-02-14T10:56:59.724Z,22.70
2019-02-14T10:59:26.641Z,21.80
2019-02-14T11:01:53.529Z,22.00
2019-02-14T11:04:20.321Z,23.00
2019-02-14T11:06:47.220Z,22.90
2019-02-14T11:09:14.189Z,23.80
2019-02-14T11:11:41.086Z,24.50
2019-02-14T11:14:07.875Z,24.50
2019-02-14T11:16:34.796Z,24.60
2019-02-14T11:19:01.630Z,24.60
2019-02-14T11:21:28.421Z,24.20
2019-02-14T11:23:55.374Z,23.00
2019-02-14T11:26:22.172Z,22.50
2019-02-14T11:28:49.020Z,22.70
2019-02-14T11:31:15.920Z,23.60
2019-02-14T11:33:42.871Z,23.30
2019-02-14T11:36:09.759Z,23.60
2019-02-14T11:38:40.574Z,24.20
2019-02-14T11:41:05.322Z,24.60
2019-02-14T11:43:32.216Z,24.10
2019-02-14T11:45:59.040Z,24.10
2019-02-14T11:48:26.984Z,24.10
2019-02-14T11:50:54.007Z,24.30
2019-02-14T11:53:20.902Z,25.50
2019-02-14T11:55:47.818Z,25.70
2019-02-14T11:58:14.608Z,25.90
2019-02-14T12:00:41.526Z,25.70
2019-02-14T12:03:08.325Z,25.70
2019-02-14T12:05:35.127Z,25.70
2019-02-14T12:08:02.166Z,25.20
2019-02-14T12:10:29.067Z,24.90
2019-02-14T12:12:55.868Z,25.20
2019-02-14T12:15:23.521Z,25.10
2019-02-14T12:17:50.497Z,24.80
2019-02-14T12:20:17.406Z,24.80
2019-02-14T12:22:46.569Z,24.60
2019-02-14T12:25:13.230Z,24.90
2019-02-14T12:27:40.106Z,25.20
2019-02-14T12:30:08.862Z,25.10
2019-02-14T12:32:35.966Z,24.60
2019-02-14T12:35:03.370Z,24.70
2019-02-14T12:37:30.167Z,24.50
2019-02-14T12:39:56.969Z,24.30
2019-02-14T12:42:23.782Z,24.20
2019-02-14T12:44:50.673Z,24.00
2019-02-14T12:47:17.577Z,23.80
2019-02-14T12:49:44.498Z,23.80
2019-02-14T12:52:11.265Z,23.50
2019-02-14T12:54:38.166Z,23.40
2019-02-14T12:57:04.945Z,23.00
2019-02-14T12:59:31.775Z,22.80
2019-02-14T13:05:39.305Z,23.00
2019-02-14T13:08:06.248Z,25.10
2019-02-14T13:10:33.249Z,26.50
2019-02-14T13:13:00.038Z,28.00
2019-02-14T13:15:26.967Z,28.60
2019-02-14T13:17:53.845Z,29.10
2019-02-14T13:20:20.824Z,30.30
2019-02-14T13:22:47.613Z,30.80
2019-02-14T13:25:14.726Z,31.60
2019-02-14T13:27:41.708Z,32.20
2019-02-14T13:30:11.480Z,31.70
2019-02-14T13:32:38.457Z,30.50
2019-02-14T13:35:05.533Z,29.50
2019-02-14T13:37:32.403Z,28.30
2019-02-14T13:39:59.201Z,27.50
2019-02-14T13:42:26.117Z,26.30
2019-02-14T13:44:52.908Z,24.80
2019-02-14T13:47:19.900Z,23.40
2019-02-14T13:49:46.685Z,22.40
2019-02-14T13:52:13.493Z,21.80
2019-02-14T13:54:40.274Z,21.30
2019-02-14T13:57:07.071Z,21.60
2019-02-14T13:59:33.852Z,22.60
2019-02-14T14:02:00.893Z,23.60
2019-02-14T14:04:27.785Z,24.50
2019-02-14T14:06:54.693Z,25.30
2019-02-14T14:09:21.488Z,25.90
2019-02-14T14:11:48.281Z,25.80
2019-02-14T14:14:15.098Z,25.10
2019-02-14T14:16:42.089Z,24.40
2019-02-14T14:19:08.886Z,23.60
2019-02-14T14:21:35.782Z,22.90
2019-02-14T14:24:02.786Z,23.30
2019-02-14T14:26:29.700Z,23.10
2019-02-14T14:28:56.571Z,22.20
2019-02-14T14:31:23.476Z,21.30
2019-02-14T14:33:50.245Z,20.90
2019-02-14T14:36:17.044Z,21.20
2019-02-14T14:38:43.929Z,21.80
2019-02-14T14:41:10.808Z,22.00
2019-02-14T14:43:48.746Z,21.90
2019-02-14T14:46:27.514Z,21.70
2019-02-14T14:48:54.390Z,21.90
2019-02-14T14:51:21.185Z,21.80
2019-02-14T14:53:47.957Z,22.50
2019-02-14T14:56:14.965Z,23.00
2019-02-14T14:58:41.970Z,23.60
2019-02-14T15:01:08.861Z,23.90
2019-02-14T15:03:35.745Z,24.20
2019-02-14T15:06:02.755Z,24.10
2019-02-14T15:08:29.658Z,24.00
2019-02-14T15:10:56.576Z,24.00
2019-02-14T15:13:23.392Z,23.90
2019-02-14T15:15:50.345Z,24.10
2019-02-14T15:18:17.326Z,23.30
2019-02-14T15:20:44.228Z,22.20
2019-02-14T15:23:11.141Z,21.90
2019-02-14T15:25:37.949Z,21.50
2019-02-14T15:28:04.840Z,21.40
2019-02-14T15:30:31.635Z,20.50
2019-02-14T15:32:58.538Z,19.70
2019-02-14T15:35:25.336Z,19.50
2019-02-14T15:37:52.135Z,19.70
2019-02-14T15:40:18.938Z,19.40
2019-02-14T15:42:45.853Z,18.80
2019-02-14T15:45:12.635Z,18.20
2019-02-14T15:47:39.445Z,17.60
2019-02-14T15:50:08.703Z,17.20
2019-02-14T15:52:35.245Z,16.40
2019-02-14T15:55:02.338Z,15.50
2019-02-14T15:57:29.129Z,14.70
2019-02-14T15:59:56.005Z,14.10
2019-02-14T16:02:22.849Z,13.80
2019-02-14T16:04:50.828Z,13.90
2019-02-14T16:07:18.447Z,13.60
2019-02-14T16:09:45.216Z,13.20
2019-02-14T16:12:12.106Z,12.70
2019-02-14T16:14:40.589Z,12.10
2019-02-14T16:17:11.214Z,11.50
2019-02-14T16:19:36.548Z,11.00
2019-02-14T16:22:03.580Z,10.70
2019-02-14T16:24:30.381Z,10.30
2019-02-14T16:26:59.034Z,10.00
2019-02-14T16:29:27.484Z,9.70
2019-02-14T16:31:54.619Z,9.40
2019-02-14T16:34:21.513Z,9.10
2019-02-14T16:36:48.286Z,8.90
2019-02-14T16:39:15.310Z,8.70
2019-02-14T16:41:42.199Z,8.50
2019-02-14T16:44:08.985Z,8.30
2019-02-14T16:46:35.772Z,8.10
2019-02-14T16:49:02.757Z,7.90
2019-02-14T16:51:29.592Z,7.70
2019-02-14T16:53:56.397Z,7.60
2019-02-14T16:56:23.284Z,7.40
2019-02-14T16:58:50.070Z,7.30
2019-02-14T17:01:16.848Z,7.20
2019-02-14T17:03:43.867Z,7.00
2019-02-14T17:06:10.867Z,6.90
2019-02-14T17:08:37.673Z,6.80
2019-02-14T17:11:04.577Z,6.70
2019-02-14T17:13:31.375Z,6.60
2019-02-14T17:15:58.341Z,6.50
2019-02-14T17:18:25.245Z,6.40
2019-02-14T17:20:52.142Z,6.30
2019-02-14T17:23:19.102Z,6.20
2019-02-14T17:25:45.892Z,6.10
2019-02-14T17:28:12.777Z,6.00
2019-02-14T17:30:39.668Z,5.90
2019-02-14T17:33:06.564Z,5.80
2019-02-14T17:35:33.364Z,5.70
2019-02-14T17:38:00.177Z,5.50
2019-02-14T17:40:27.078Z,5.40
2019-02-14T17:42:53.978Z,5.30
2019-02-14T17:45:20.900Z,5.20
2019-02-14T17:47:47.945Z,5.10
2019-02-14T17:50:14.880Z,5.10
2019-02-14T17:52:42.086Z,5.00
2019-02-14T17:55:09.169Z,4.90
2019-02-14T17:57:36.068Z,4.90
2019-02-14T18:00:04.677Z,4.80
2019-02-14T18:02:31.477Z,4.80
2019-02-14T18:04:58.285Z,4.60
2019-02-14T18:07:25.277Z,4.50
2019-02-14T18:09:52.069Z,4.30
2019-02-14T18:12:18.857Z,4.20
2019-02-14T18:14:45.750Z,4.00
2019-02-14T18:17:12.675Z,4.00
2019-02-14T18:19:39.484Z,3.90
2019-02-14T18:22:06.290Z,3.80
2019-02-14T18:24:33.101Z,3.80
2019-02-14T18:26:59.908Z,3.70
2019-02-14T18:29:26.725Z,3.50
2019-02-14T18:31:53.594Z,3.50
2019-02-14T18:34:20.376Z,3.40
2019-02-14T18:36:47.220Z,3.40
2019-02-14T18:39:14.223Z,3.30
2019-02-14T18:41:41.017Z,3.20
2019-02-14T18:44:07.841Z,3.10
2019-02-14T18:46:34.637Z,2.90
2019-02-14T18:49:01.533Z,2.90
2019-02-14T18:51:28.334Z,2.70
2019-02-14T18:53:55.147Z,2.70
2019-02-14T18:56:21.951Z,2.60
2019-02-14T18:58:48.848Z,2.50
2019-02-14T19:01:15.750Z,2.50
2019-02-14T19:03:42.549Z,2.40
2019-02-14T19:06:09.465Z,2.40
2019-02-14T19:08:36.270Z,2.30
2019-02-14T19:11:03.286Z,2.20
2019-02-14T19:13:30.072Z,2.10
2019-02-14T19:15:56.874Z,2.10
2019-02-14T19:18:23.761Z,2.10
2019-02-14T19:20:50.564Z,2.10
2019-02-14T19:23:24.155Z,2.10
2019-02-14T19:25:46.149Z,2.10
2019-02-14T19:28:12.960Z,2.00
2019-02-14T19:30:39.772Z,2.00
2019-02-14T19:33:06.862Z,2.00
2019-02-14T19:35:33.654Z,1.90
2019-02-14T19:38:00.617Z,1.80
2019-02-14T19:40:27.633Z,1.70
2019-02-14T19:42:54.429Z,1.70
2019-02-14T19:45:21.436Z,1.70
2019-02-14T19:47:48.436Z,1.60
2019-02-14T19:50:15.329Z,1.60
2019-02-14T19:52:42.375Z,1.50
2019-02-14T19:55:09.387Z,1.50
2019-02-14T19:57:36.201Z,1.50
2019-02-14T20:00:04.413Z,1.50
2019-02-14T20:02:31.441Z,1.40
2019-02-14T20:04:58.530Z,1.50
2019-02-14T20:07:25.591Z,1.50
2019-02-14T20:09:52.577Z,1.40
2019-02-14T20:12:19.408Z,1.40
2019-02-14T20:14:46.345Z,1.30
2019-02-14T20:17:13.331Z,1.20
2019-02-14T20:19:40.286Z,1.20
2019-02-14T20:22:07.145Z,1.10
2019-02-14T20:24:34.041Z,1.00
2019-02-14T20:27:00.950Z,0.90
2019-02-14T20:29:27.741Z,0.90
2019-02-14T20:31:54.545Z,0.80
2019-02-14T20:34:21.336Z,0.80
2019-02-14T20:36:48.163Z,0.80
2019-02-14T20:39:15.052Z,0.70
2019-02-14T20:41:46.011Z,0.70
2019-02-14T20:44:10.697Z,0.60
2019-02-14T20:46:37.699Z,0.60
2019-02-14T20:49:04.705Z,0.50
2019-02-14T20:51:38.301Z,0.50
2019-02-14T20:54:00.410Z,0.50
2019-02-14T20:56:27.345Z,0.40
2019-02-14T20:58:54.606Z,0.40
2019-02-14T21:01:21.678Z,0.30
2019-02-14T21:03:48.468Z,0.30
2019-02-14T21:06:15.381Z,0.30
2019-02-14T21:08:42.273Z,0.30
2019-02-14T21:11:09.259Z,0.30
2019-02-14T21:13:36.054Z,0.30
2019-02-14T21:16:03.040Z,0.30
2019-02-14T21:18:30.004Z,0.30
2019-02-14T21:20:56.994Z,0.20
2019-02-14T21:23:24.001Z,0.20
2019-02-14T21:25:50.887Z,0.10
2019-02-14T21:28:17.904Z,0.00
2019-02-14T21:30:44.709Z,0.00
2019-02-14T21:33:11.659Z,0.00
2019-02-14T21:35:38.605Z,-0.10
2019-02-14T21:38:05.895Z,-0.10
2019-02-14T21:40:32.871Z,-0.20
2019-02-14T21:42:59.872Z,-0.20
2019-02-14T21:45:26.857Z,-0.30
2019-02-14T21:47:53.764Z,-0.30
2019-02-14T21:50:20.547Z,-0.40
2019-02-14T21:52:47.407Z,-0.40
2019-02-14T21:55:14.487Z,-0.40
2019-02-14T21:57:41.580Z,-0.40
2019-02-14T22:00:14.751Z,-0.40
2019-02-14T22:02:42.374Z,-0.40
2019-02-14T22:05:09.484Z,-0.40
2019-02-14T22:07:36.393Z,-0.40
2019-02-14T22:10:03.668Z,-0.40
2019-02-14T22:12:39.803Z,-0.30
2019-02-14T22:14:59.361Z,-0.40
2019-02-14T22:17:26.256Z,-0.30
2019-02-14T22:19:53.145Z,-0.30
2019-02-14T22:22:20.126Z,-0.40
2019-02-14T22:24:47.126Z,-0.30
2019-02-14T22:27:14.104Z,-0.40
2019-02-14T22:29:41.111Z,-0.50
2019-02-14T22:32:07.894Z,-0.50
2019-02-14T22:34:34.697Z,-0.50
2019-02-14T22:37:01.609Z,-0.60
2019-02-14T22:39:28.505Z,-0.60
2019-02-14T22:41:55.277Z,-0.70
2019-02-14T22:44:22.172Z,-0.70
2019-02-14T22:46:48.961Z,-0.70
2019-02-14T22:49:15.897Z,-0.70
2019-02-14T22:51:42.699Z,-0.70
2019-02-14T22:54:09.617Z,-0.70
2019-02-14T22:56:36.501Z,-0.70
2019-02-14T22:59:03.412Z,-0.70
2019-02-14T23:01:30.399Z,-0.80
2019-02-14T23:03:57.378Z,-0.70
2019-02-14T23:06:24.421Z,-0.70
2019-02-14T23:08:51.359Z,-0.70
2019-02-14T23:11:18.258Z,-0.70
2019-02-14T23:13:45.043Z,-0.70
2019-02-14T23:16:12.037Z,-0.60
2019-02-14T23:18:39.015Z,-0.60
2019-02-14T23:21:05.816Z,-0.60
2019-02-14T23:23:32.697Z,-0.60
2019-02-14T23:25:59.491Z,-0.60
2019-02-14T23:28:26.360Z,-0.60
2019-02-14T23:30:53.166Z,-0.60
2019-02-14T23:33:19.946Z,-0.60
2019-02-14T23:35:46.839Z,-0.70
2019-02-14T23:38:13.736Z,-0.70
2019-02-14T23:40:40.530Z,-0.70
2019-02-14T23:43:07.467Z,-0.70
2019-02-14T23:45:34.503Z,-0.70
2019-02-14T23:48:01.284Z,-0.70
2019-02-14T23:50:28.172Z,-0.70
2019-02-14T23:52:54.949Z,-0.70
2019-02-14T23:55:21.964Z,-0.70
2019-02-14T23:57:48.764Z,-0.70
